HLLM

Mitiga Airport

Tripoli, Libya
METAR HLLM 181350Z 07010KT 7000 FEW025 30/21 Q1016
Observed Flight Rules
Aug-18 @ 13:50 UTC (an hour ago) Marginal Visual Flight Rules
Wind Visibility Clouds
70° at 10 knots 7,001 meters
  • Few at 2,500' AGL
Temperatures Readings
Current 30°C / 86°F
Dewpoint 21°C / 70°F
Humidity 59%
Altimeter 30" Hg
Pressure 1016 hPa
Elevation 11
METAR HLLM 181350Z 07010KT 7000 FEW025 30/21 Q1016
Observed Flight Rules
Aug-18 @ 13:50 UTC
(an hour ago)
MVFR
Wind Visibility
70° at 10 knots 7,001 meters
Clouds
  • Few at 2,500' AGL
Temperature Dewpoint
30°C / 86°F 21°C / 70°F
Humidity Altimeter Pressure
59% 30" Hg 1016 hPa